sensor_id;sensor_type;location;lat;lon;timestamp;pressure;altitude;pressure_sealevel;temperature;humidity
70544;BME280;58097;48.364;-1.224;2023-07-31T00:01:51;99728.44;;;17.12;85.49
70544;BME280;58097;48.364;-1.224;2023-07-31T00:04:17;99726.72;;;17.11;85.64
70544;BME280;58097;48.364;-1.224;2023-07-31T00:06:42;99732.75;;;17.14;84.93
70544;BME280;58097;48.364;-1.224;2023-07-31T00:09:07;99751.41;;;17.14;85.69
70544;BME280;58097;48.364;-1.224;2023-07-31T00:11:33;99741.09;;;17.08;86.74
70544;BME280;58097;48.364;-1.224;2023-07-31T00:13:58;99744.53;;;17.10;86.37
70544;BME280;58097;48.364;-1.224;2023-07-31T00:16:24;99753.16;;;17.15;85.86
70544;BME280;58097;48.364;-1.224;2023-07-31T00:18:49;99744.78;;;17.15;86.22
70544;BME280;58097;48.364;-1.224;2023-07-31T00:21:14;99741.31;;;17.13;86.15
70544;BME280;58097;48.364;-1.224;2023-07-31T00:23:40;99727.56;;;17.11;86.36
70544;BME280;58097;48.364;-1.224;2023-07-31T00:26:05;99724.38;;;17.14;86.11
70544;BME280;58097;48.364;-1.224;2023-07-31T00:28:30;99722.00;;;17.18;85.71
70544;BME280;58097;48.364;-1.224;2023-07-31T00:30:56;99719.88;;;17.20;86.41
70544;BME280;58097;48.364;-1.224;2023-07-31T00:33:21;99723.72;;;17.19;86.20
70544;BME280;58097;48.364;-1.224;2023-07-31T00:35:48;99722.88;;;17.18;85.94
70544;BME280;58097;48.364;-1.224;2023-07-31T00:38:13;99727.81;;;17.23;86.08
70544;BME280;58097;48.364;-1.224;2023-07-31T00:40:39;99719.44;;;17.23;86.34
70544;BME280;58097;48.364;-1.224;2023-07-31T00:43:04;99721.38;;;17.22;86.45
70544;BME280;58097;48.364;-1.224;2023-07-31T00:45:30;99719.66;;;17.21;86.63
70544;BME280;58097;48.364;-1.224;2023-07-31T00:47:56;99716.00;;;17.21;86.21
70544;BME280;58097;48.364;-1.224;2023-07-31T00:50:26;99715.78;;;17.22;86.60
70544;BME280;58097;48.364;-1.224;2023-07-31T00:52:52;99713.66;;;17.24;87.02
70544;BME280;58097;48.364;-1.224;2023-07-31T00:55:17;99714.28;;;17.20;87.35
70544;BME280;58097;48.364;-1.224;2023-07-31T00:57:44;99704.84;;;17.21;87.40
70544;BME280;58097;48.364;-1.224;2023-07-31T01:00:10;99710.41;;;17.21;86.88
70544;BME280;58097;48.364;-1.224;2023-07-31T01:02:36;99702.47;;;17.18;87.85
70544;BME280;58097;48.364;-1.224;2023-07-31T01:05:03;99701.59;;;17.17;87.07
70544;BME280;58097;48.364;-1.224;2023-07-31T01:08:01;99695.59;;;17.20;87.58
70544;BME280;58097;48.364;-1.224;2023-07-31T01:10:36;99694.72;;;17.20;87.34
70544;BME280;58097;48.364;-1.224;2023-07-31T01:13:03;99704.19;;;17.19;87.37
70544;BME280;58097;48.364;-1.224;2023-07-31T01:15:28;99688.28;;;17.19;87.96
70544;BME280;58097;48.364;-1.224;2023-07-31T01:17:54;99679.91;;;17.19;87.87
70544;BME280;58097;48.364;-1.224;2023-07-31T01:20:24;99685.06;;;17.22;87.70
70544;BME280;58097;48.364;-1.224;2023-07-31T01:31:07;99677.56;;;17.23;87.60
70544;BME280;58097;48.364;-1.224;2023-07-31T01:33:33;99673.69;;;17.17;88.58
70544;BME280;58097;48.364;-1.224;2023-07-31T01:35:59;99676.25;;;17.19;88.21
70544;BME280;58097;48.364;-1.224;2023-07-31T01:38:24;99658.66;;;17.18;88.45
70544;BME280;58097;48.364;-1.224;2023-07-31T01:40:53;99650.28;;;17.18;88.27
70544;BME280;58097;48.364;-1.224;2023-07-31T01:43:19;99652.84;;;17.20;88.27
70544;BME280;58097;48.364;-1.224;2023-07-31T01:45:44;99638.88;;;17.20;88.49
70544;BME280;58097;48.364;-1.224;2023-07-31T01:48:10;99634.38;;;17.19;88.41
70544;BME280;58097;48.364;-1.224;2023-07-31T01:50:35;99638.44;;;17.16;88.45
70544;BME280;58097;48.364;-1.224;2023-07-31T01:53:00;99632.88;;;17.16;88.99
70544;BME280;58097;48.364;-1.224;2023-07-31T01:55:26;99630.94;;;17.17;89.06
70544;BME280;58097;48.364;-1.224;2023-07-31T01:57:51;99640.19;;;17.17;88.15
70544;BME280;58097;48.364;-1.224;2023-07-31T02:00:17;99639.75;;;17.14;87.68
70544;BME280;58097;48.364;-1.224;2023-07-31T02:02:43;99642.09;;;17.10;87.37
70544;BME280;58097;48.364;-1.224;2023-07-31T02:05:08;99628.75;;;17.06;88.21
70544;BME280;58097;48.364;-1.224;2023-07-31T02:07:34;99628.50;;;17.00;87.80
70544;BME280;58097;48.364;-1.224;2023-07-31T02:09:59;99623.56;;;16.96;88.60
70544;BME280;58097;48.364;-1.224;2023-07-31T02:12:24;99621.63;;;16.96;88.54
70544;BME280;58097;48.364;-1.224;2023-07-31T02:14:50;99618.19;;;16.94;87.99
70544;BME280;58097;48.364;-1.224;2023-07-31T02:17:15;99618.63;;;16.91;89.07
70544;BME280;58097;48.364;-1.224;2023-07-31T02:19:40;99606.81;;;16.89;89.86
70544;BME280;58097;48.364;-1.224;2023-07-31T02:22:06;99590.06;;;16.89;90.18
70544;BME280;58097;48.364;-1.224;2023-07-31T02:24:31;99591.13;;;16.88;88.89
70544;BME280;58097;48.364;-1.224;2023-07-31T02:26:57;99587.91;;;16.91;88.47
70544;BME280;58097;48.364;-1.224;2023-07-31T02:29:22;99586.84;;;16.92;89.19
70544;BME280;58097;48.364;-1.224;2023-07-31T02:31:47;99587.50;;;16.94;88.63
70544;BME280;58097;48.364;-1.224;2023-07-31T02:34:13;99582.13;;;16.93;89.31
70544;BME280;58097;48.364;-1.224;2023-07-31T02:36:38;99581.91;;;16.94;89.09
70544;BME280;58097;48.364;-1.224;2023-07-31T02:39:03;99579.75;;;16.96;89.29
70544;BME280;58097;48.364;-1.224;2023-07-31T02:41:29;99591.13;;;16.95;89.41
70544;BME280;58097;48.364;-1.224;2023-07-31T02:43:54;99584.06;;;16.99;89.01
70544;BME280;58097;48.364;-1.224;2023-07-31T02:46:19;99583.00;;;17.00;89.24
70544;BME280;58097;48.364;-1.224;2023-07-31T02:48:45;99576.59;;;17.06;88.57
70544;BME280;58097;48.364;-1.224;2023-07-31T02:51:10;99576.59;;;17.06;88.58
70544;BME280;58097;48.364;-1.224;2023-07-31T02:53:36;99573.97;;;17.04;89.67
70544;BME280;58097;48.364;-1.224;2023-07-31T02:56:01;99579.78;;;17.03;89.84
70544;BME280;58097;48.364;-1.224;2023-07-31T02:58:26;99571.41;;;17.03;89.73
70544;BME280;58097;48.364;-1.224;2023-07-31T03:00:52;99569.47;;;17.03;89.84
70544;BME280;58097;48.364;-1.224;2023-07-31T03:03:17;99557.91;;;17.07;89.70
70544;BME280;58097;48.364;-1.224;2023-07-31T03:05:42;99563.66;;;17.05;89.23
70544;BME280;58097;48.364;-1.224;2023-07-31T03:08:08;99563.88;;;17.03;89.83
70544;BME280;58097;48.364;-1.224;2023-07-31T03:10:33;99559.16;;;17.04;89.94
70544;BME280;58097;48.364;-1.224;2023-07-31T03:12:58;99563.03;;;17.03;90.07
70544;BME280;58097;48.364;-1.224;2023-07-31T03:15:24;99560.88;;;17.05;89.96
70544;BME280;58097;48.364;-1.224;2023-07-31T03:17:49;99565.41;;;17.06;89.79
70544;BME280;58097;48.364;-1.224;2023-07-31T03:20:14;99555.75;;;17.09;89.30
70544;BME280;58097;48.364;-1.224;2023-07-31T03:22:40;99550.81;;;17.11;89.74
70544;BME280;58097;48.364;-1.224;2023-07-31T03:25:05;99546.09;;;17.11;89.55
70544;BME280;58097;48.364;-1.224;2023-07-31T03:27:31;99543.53;;;17.10;89.76
70544;BME280;58097;48.364;-1.224;2023-07-31T03:29:56;99547.38;;;17.09;89.76
70544;BME280;58097;48.364;-1.224;2023-07-31T03:32:22;99545.25;;;17.11;89.63
70544;BME280;58097;48.364;-1.224;2023-07-31T03:34:49;99534.72;;;17.06;90.13
70544;BME280;58097;48.364;-1.224;2023-07-31T03:37:14;99539.41;;;17.06;90.28
70544;BME280;58097;48.364;-1.224;2023-07-31T03:39:40;99532.09;;;17.04;90.44
70544;BME280;58097;48.364;-1.224;2023-07-31T03:42:05;99535.75;;;17.05;90.11
70544;BME280;58097;48.364;-1.224;2023-07-31T03:44:31;99530.81;;;17.00;91.07
70544;BME280;58097;48.364;-1.224;2023-07-31T03:46:56;99514.28;;;16.99;91.31
70544;BME280;58097;48.364;-1.224;2023-07-31T03:49:21;99513.19;;;17.00;90.80
70544;BME280;58097;48.364;-1.224;2023-07-31T03:51:47;99503.09;;;16.99;90.96
70544;BME280;58097;48.364;-1.224;2023-07-31T03:54:12;99509.97;;;16.96;91.14
70544;BME280;58097;48.364;-1.224;2023-07-31T03:56:39;99514.72;;;17.02;90.67
70544;BME280;58097;48.364;-1.224;2023-07-31T03:59:04;99508.91;;;16.97;91.20
70544;BME280;58097;48.364;-1.224;2023-07-31T04:01:30;99515.56;;;17.03;90.51
70544;BME280;58097;48.364;-1.224;2023-07-31T04:03:55;99512.56;;;17.04;90.95
70544;BME280;58097;48.364;-1.224;2023-07-31T04:06:21;99519.84;;;17.06;90.63
70544;BME280;58097;48.364;-1.224;2023-07-31T04:08:46;99513.88;;;17.09;91.03
70544;BME280;58097;48.364;-1.224;2023-07-31T04:11:11;99514.75;;;17.09;91.21
70544;BME280;58097;48.364;-1.224;2023-07-31T04:13:40;99518.38;;;17.10;90.91
70544;BME280;58097;48.364;-1.224;2023-07-31T04:16:06;99514.97;;;17.08;91.35
70544;BME280;58097;48.364;-1.224;2023-07-31T04:18:31;99515.59;;;17.10;91.07
70544;BME280;58097;48.364;-1.224;2023-07-31T04:20:57;99514.75;;;17.09;91.09
70544;BME280;58097;48.364;-1.224;2023-07-31T04:23:26;99514.97;;;17.08;91.45
70544;BME280;58097;48.364;-1.224;2023-07-31T04:25:52;99519.47;;;17.09;91.31
70544;BME280;58097;48.364;-1.224;2023-07-31T04:28:17;99515.38;;;17.11;91.07
70544;BME280;58097;48.364;-1.224;2023-07-31T04:30:42;99503.34;;;17.11;91.51
70544;BME280;58097;48.364;-1.224;2023-07-31T04:33:08;99503.78;;;17.14;91.03
70544;BME280;58097;48.364;-1.224;2023-07-31T04:35:33;99508.28;;;17.15;90.69
70544;BME280;58097;48.364;-1.224;2023-07-31T04:37:59;99510.88;;;17.17;90.87
70544;BME280;58097;48.364;-1.224;2023-07-31T04:40:24;99516.25;;;17.18;90.83
70544;BME280;58097;48.364;-1.224;2023-07-31T04:42:49;99497.34;;;17.14;91.41
70544;BME280;58097;48.364;-1.224;2023-07-31T04:45:15;99506.38;;;17.16;90.70
70544;BME280;58097;48.364;-1.224;2023-07-31T04:47:41;99511.31;;;17.14;91.50
70544;BME280;58097;48.364;-1.224;2023-07-31T04:50:06;99516.88;;;17.14;91.35
70544;BME280;58097;48.364;-1.224;2023-07-31T04:52:32;99517.75;;;17.14;91.37
70544;BME280;58097;48.364;-1.224;2023-07-31T04:54:57;99502.94;;;17.14;92.07
70544;BME280;58097;48.364;-1.224;2023-07-31T04:57:22;99494.56;;;17.14;91.47
70544;BME280;58097;48.364;-1.224;2023-07-31T04:59:48;99506.16;;;17.17;91.36
70544;BME280;58097;48.364;-1.224;2023-07-31T05:02:13;99505.06;;;17.18;91.44
70544;BME280;58097;48.364;-1.224;2023-07-31T05:04:39;99499.28;;;17.20;91.29
70544;BME280;58097;48.364;-1.224;2023-07-31T05:07:04;99497.56;;;17.19;91.59
70544;BME280;58097;48.364;-1.224;2023-07-31T05:09:30;99493.25;;;17.23;91.64
70544;BME280;58097;48.364;-1.224;2023-07-31T05:11:55;99495.63;;;17.19;92.07
70544;BME280;58097;48.364;-1.224;2023-07-31T05:14:20;99482.09;;;17.23;92.03
70544;BME280;58097;48.364;-1.224;2023-07-31T05:16:46;99484.03;;;17.22;92.26
70544;BME280;58097;48.364;-1.224;2023-07-31T05:19:11;99488.75;;;17.22;92.18
70544;BME280;58097;48.364;-1.224;2023-07-31T05:21:36;99487.03;;;17.27;91.91
70544;BME280;58097;48.364;-1.224;2023-07-31T05:24:02;99476.50;;;17.29;91.69
70544;BME280;58097;48.364;-1.224;2023-07-31T05:26:27;99471.75;;;17.30;91.69
70544;BME280;58097;48.364;-1.224;2023-07-31T05:28:53;99473.47;;;17.31;92.29
70544;BME280;58097;48.364;-1.224;2023-07-31T05:31:18;99478.63;;;17.34;91.86
70544;BME280;58097;48.364;-1.224;2023-07-31T05:33:43;99468.31;;;17.34;91.80
70544;BME280;58097;48.364;-1.224;2023-07-31T05:36:09;99471.34;;;17.33;91.97
70544;BME280;58097;48.364;-1.224;2023-07-31T05:38:34;99467.47;;;17.34;92.38
70544;BME280;58097;48.364;-1.224;2023-07-31T05:41:00;99475.84;;;17.34;92.67
70544;BME280;58097;48.364;-1.224;2023-07-31T05:43:25;99478.00;;;17.32;92.42
70544;BME280;58097;48.364;-1.224;2023-07-31T05:45:51;99474.13;;;17.33;93.11
70544;BME280;58097;48.364;-1.224;2023-07-31T05:48:16;99465.75;;;17.33;92.52
70544;BME280;58097;48.364;-1.224;2023-07-31T05:50:43;99462.75;;;17.41;92.19
70544;BME280;58097;48.364;-1.224;2023-07-31T05:53:08;99456.31;;;17.41;92.71
70544;BME280;58097;48.364;-1.224;2023-07-31T05:55:35;99463.63;;;17.42;93.15
70544;BME280;58097;48.364;-1.224;2023-07-31T05:58:01;99455.88;;;17.44;92.59
70544;BME280;58097;48.364;-1.224;2023-07-31T06:00:26;99455.22;;;17.42;92.15
70544;BME280;58097;48.364;-1.224;2023-07-31T06:02:53;99464.47;;;17.42;92.92
70544;BME280;58097;48.364;-1.224;2023-07-31T06:05:18;99475.66;;;17.42;93.02
70544;BME280;58097;48.364;-1.224;2023-07-31T06:07:43;99467.69;;;17.39;93.20
70544;BME280;58097;48.364;-1.224;2023-07-31T06:10:09;99465.56;;;17.41;93.49
70544;BME280;58097;48.364;-1.224;2023-07-31T06:12:35;99465.78;;;17.40;93.77
70544;BME280;58097;48.364;-1.224;2023-07-31T06:15:02;99462.34;;;17.38;93.73
70544;BME280;58097;48.364;-1.224;2023-07-31T06:17:28;99450.72;;;17.34;94.83
70544;BME280;58097;48.364;-1.224;2023-07-31T06:19:54;99453.50;;;17.34;94.52
70544;BME280;58097;48.364;-1.224;2023-07-31T06:22:19;99448.16;;;17.39;94.77
70544;BME280;58097;48.364;-1.224;2023-07-31T06:24:46;99447.50;;;17.44;93.90
70544;BME280;58097;48.364;-1.224;2023-07-31T06:27:11;99434.59;;;17.49;94.44
70544;BME280;58097;48.364;-1.224;2023-07-31T06:29:37;99452.22;;;17.50;94.39
70544;BME280;58097;48.364;-1.224;2023-07-31T06:32:02;99448.78;;;17.48;94.96
70544;BME280;58097;48.364;-1.224;2023-07-31T06:34:28;99437.38;;;17.49;94.81
70544;BME280;58097;48.364;-1.224;2023-07-31T06:36:55;99450.28;;;17.50;94.55
70544;BME280;58097;48.364;-1.224;2023-07-31T06:39:20;99448.13;;;17.52;94.71
70544;BME280;58097;48.364;-1.224;2023-07-31T06:41:46;99438.25;;;17.50;94.86
70544;BME280;58097;48.364;-1.224;2023-07-31T06:44:11;99433.94;;;17.47;94.98
70544;BME280;58097;48.364;-1.224;2023-07-31T06:46:37;99424.50;;;17.48;95.34
70544;BME280;58097;48.364;-1.224;2023-07-31T06:49:03;99418.91;;;17.48;94.85
70544;BME280;58097;48.364;-1.224;2023-07-31T06:51:28;99427.94;;;17.50;95.20
70544;BME280;58097;48.364;-1.224;2023-07-31T06:53:53;99421.69;;;17.55;95.02
70544;BME280;58097;48.364;-1.224;2023-07-31T06:56:20;99424.03;;;17.58;94.51
70544;BME280;58097;48.364;-1.224;2023-07-31T06:58:45;99423.59;;;17.61;94.90
70544;BME280;58097;48.364;-1.224;2023-07-31T07:01:11;99426.16;;;17.62;93.98
70544;BME280;58097;48.364;-1.224;2023-07-31T07:03:36;99421.88;;;17.67;93.95
70544;BME280;58097;48.364;-1.224;2023-07-31T07:06:01;99414.81;;;17.71;93.90
70544;BME280;58097;48.364;-1.224;2023-07-31T07:08:27;99416.75;;;17.70;94.09
70544;BME280;58097;48.364;-1.224;2023-07-31T07:10:52;99415.88;;;17.70;93.96
70544;BME280;58097;48.364;-1.224;2023-07-31T07:13:17;99410.72;;;17.73;93.77
70544;BME280;58097;48.364;-1.224;2023-07-31T07:15:49;99415.00;;;17.76;93.73
70544;BME280;58097;48.364;-1.224;2023-07-31T07:18:15;99412.84;;;17.78;93.76
70544;BME280;58097;48.364;-1.224;2023-07-31T07:20:46;99409.63;;;17.74;94.10
70544;BME280;58097;48.364;-1.224;2023-07-31T07:23:11;99402.53;;;17.78;93.89
70544;BME280;58097;48.364;-1.224;2023-07-31T07:25:39;99405.50;;;17.83;93.55
70544;BME280;58097;48.364;-1.224;2023-07-31T07:28:05;99403.75;;;17.89;93.68
70544;BME280;58097;48.364;-1.224;2023-07-31T07:30:30;99395.78;;;17.92;93.29
70544;BME280;58097;48.364;-1.224;2023-07-31T07:32:55;99402.28;;;17.93;93.31
70544;BME280;58097;48.364;-1.224;2023-07-31T07:35:21;99399.25;;;17.88;93.41
70544;BME280;58097;48.364;-1.224;2023-07-31T07:37:48;99403.13;;;17.87;94.05
70544;BME280;58097;48.364;-1.224;2023-07-31T07:40:15;99400.97;;;17.89;93.80
70544;BME280;58097;48.364;-1.224;2023-07-31T07:42:40;99396.22;;;17.89;93.94
70544;BME280;58097;48.364;-1.224;2023-07-31T07:45:06;99403.31;;;17.92;93.71
70544;BME280;58097;48.364;-1.224;2023-07-31T07:47:32;99403.97;;;17.94;94.36
70544;BME280;58097;48.364;-1.224;2023-07-31T07:49:57;99396.88;;;17.98;93.82
70544;BME280;58097;48.364;-1.224;2023-07-31T07:52:22;99395.16;;;17.97;94.25
70544;BME280;58097;48.364;-1.224;2023-07-31T07:54:48;99390.19;;;17.99;93.95
70544;BME280;58097;48.364;-1.224;2023-07-31T07:57:13;99391.28;;;17.98;93.99
70544;BME280;58097;48.364;-1.224;2023-07-31T07:59:38;99382.25;;;17.96;94.38
70544;BME280;58097;48.364;-1.224;2023-07-31T08:02:04;99378.16;;;17.99;93.93
70544;BME280;58097;48.364;-1.224;2023-07-31T08:04:30;99373.88;;;17.96;93.77
70544;BME280;58097;48.364;-1.224;2023-07-31T08:06:55;99377.75;;;17.95;94.03
70544;BME280;58097;48.364;-1.224;2023-07-31T08:09:20;99364.19;;;17.92;94.06
70544;BME280;58097;48.364;-1.224;2023-07-31T08:11:46;99375.34;;;17.99;94.28
70544;BME280;58097;48.364;-1.224;2023-07-31T08:14:11;99370.41;;;18.01;93.92
70544;BME280;58097;48.364;-1.224;2023-07-31T08:16:36;99365.44;;;18.03;93.77
70544;BME280;58097;48.364;-1.224;2023-07-31T08:19:02;99357.91;;;18.03;93.83
70544;BME280;58097;48.364;-1.224;2023-07-31T08:21:27;99360.72;;;18.03;94.03
70544;BME280;58097;48.364;-1.224;2023-07-31T08:23:52;99357.69;;;18.05;94.16
70544;BME280;58097;48.364;-1.224;2023-07-31T08:26:19;99343.94;;;18.03;94.17
70544;BME280;58097;48.364;-1.224;2023-07-31T08:28:44;99351.88;;;18.06;94.09
70544;BME280;58097;48.364;-1.224;2023-07-31T08:31:10;99346.06;;;18.08;94.16
70544;BME280;58097;48.364;-1.224;2023-07-31T08:33:36;99349.47;;;18.10;94.29
70544;BME280;58097;48.364;-1.224;2023-07-31T08:36:02;99345.16;;;18.14;93.94
70544;BME280;58097;48.364;-1.224;2023-07-31T08:38:28;99352.88;;;18.18;93.84
70544;BME280;58097;48.364;-1.224;2023-07-31T08:40:54;99338.47;;;18.15;94.45
70544;BME280;58097;48.364;-1.224;2023-07-31T08:43:22;99337.00;;;18.12;94.80
70544;BME280;58097;48.364;-1.224;2023-07-31T08:45:50;99335.28;;;18.11;94.53
70544;BME280;58097;48.364;-1.224;2023-07-31T08:48:17;99335.91;;;18.13;94.87
70544;BME280;58097;48.364;-1.224;2023-07-31T08:50:43;99329.22;;;18.14;95.25
70544;BME280;58097;48.364;-1.224;2023-07-31T08:53:08;99327.91;;;18.17;94.92
70544;BME280;58097;48.364;-1.224;2023-07-31T08:55:35;99335.22;;;18.18;95.36
70544;BME280;58097;48.364;-1.224;2023-07-31T08:58:04;99325.09;;;18.23;95.64
70544;BME280;58097;48.364;-1.224;2023-07-31T09:00:31;99327.22;;;18.28;95.37
70544;BME280;58097;48.364;-1.224;2023-07-31T09:03:04;99313.25;;;18.28;96.21
70544;BME280;58097;48.364;-1.224;2023-07-31T09:05:34;99319.63;;;18.35;96.02
70544;BME280;58097;48.364;-1.224;2023-07-31T09:08:02;99318.56;;;18.36;96.71
70544;BME280;58097;48.364;-1.224;2023-07-31T09:10:29;99321.56;;;18.35;96.76
70544;BME280;58097;48.364;-1.224;2023-07-31T09:12:55;99331.91;;;18.34;96.95
70544;BME280;58097;48.364;-1.224;2023-07-31T09:15:21;99333.00;;;18.33;97.39
70544;BME280;58097;48.364;-1.224;2023-07-31T09:17:58;99353.22;;;18.35;97.22
70544;BME280;58097;48.364;-1.224;2023-07-31T09:20:24;99336.66;;;18.34;98.21
70544;BME280;58097;48.364;-1.224;2023-07-31T09:22:50;99347.59;;;18.35;97.82
70544;BME280;58097;48.364;-1.224;2023-07-31T09:27:59;99341.16;;;18.35;98.80
70544;BME280;58097;48.364;-1.224;2023-07-31T09:30:25;99337.72;;;18.33;99.51
70544;BME280;58097;48.364;-1.224;2023-07-31T09:32:59;99337.28;;;18.36;99.62
70544;BME280;58097;48.364;-1.224;2023-07-31T09:35:33;99328.84;;;18.42;99.79
70544;BME280;58097;48.364;-1.224;2023-07-31T09:38:01;99328.13;;;18.53;99.85
70544;BME280;58097;48.364;-1.224;2023-07-31T09:40:39;99322.25;;;18.62;99.54
70544;BME280;58097;48.364;-1.224;2023-07-31T09:43:09;99312.28;;;18.72;99.89
70544;BME280;58097;48.364;-1.224;2023-07-31T09:45:38;99324.47;;;18.78;98.84
70544;BME280;58097;48.364;-1.224;2023-07-31T09:48:15;99318.69;;;18.79;98.44
70544;BME280;58097;48.364;-1.224;2023-07-31T09:50:45;99312.41;;;18.84;98.77
70544;BME280;58097;48.364;-1.224;2023-07-31T09:53:11;99321.88;;;18.83;98.59
70544;BME280;58097;48.364;-1.224;2023-07-31T09:55:37;99315.13;;;18.91;98.21
70544;BME280;58097;48.364;-1.224;2023-07-31T09:58:08;99306.19;;;19.00;98.07
70544;BME280;58097;48.364;-1.224;2023-07-31T10:00:35;99305.91;;;19.08;97.62
70544;BME280;58097;48.364;-1.224;2023-07-31T10:03:05;99301.38;;;19.07;97.24
70544;BME280;58097;48.364;-1.224;2023-07-31T10:05:34;99301.81;;;19.11;97.08
70544;BME280;58097;48.364;-1.224;2023-07-31T10:08:00;99294.66;;;19.15;96.86
70544;BME280;58097;48.364;-1.224;2023-07-31T10:10:26;99303.81;;;19.22;96.12
70544;BME280;58097;48.364;-1.224;2023-07-31T10:12:53;99295.19;;;19.24;96.12
70544;BME280;58097;48.364;-1.224;2023-07-31T10:15:19;99299.00;;;19.29;95.58
70544;BME280;58097;48.364;-1.224;2023-07-31T10:17:49;99293.63;;;19.28;95.57
70544;BME280;58097;48.364;-1.224;2023-07-31T10:20:16;99282.56;;;19.33;95.38
70544;BME280;58097;48.364;-1.224;2023-07-31T10:22:42;99278.41;;;19.42;95.37
70544;BME280;58097;48.364;-1.224;2023-07-31T10:25:08;99285.38;;;19.51;95.50
70544;BME280;58097;48.364;-1.224;2023-07-31T10:27:36;99288.75;;;19.60;95.17
70544;BME280;58097;48.364;-1.224;2023-07-31T10:30:05;99283.38;;;19.58;94.32
70544;BME280;58097;48.364;-1.224;2023-07-31T10:32:33;99289.00;;;19.58;93.96
70544;BME280;58097;48.364;-1.224;2023-07-31T10:34:58;99272.78;;;19.60;93.83
70544;BME280;58097;48.364;-1.224;2023-07-31T10:37:37;99280.47;;;19.65;93.77
70544;BME280;58097;48.364;-1.224;2023-07-31T10:42:54;99289.69;;;19.72;93.11
70544;BME280;58097;48.364;-1.224;2023-07-31T10:48:15;99285.88;;;19.66;93.66
70544;BME280;58097;48.364;-1.224;2023-07-31T10:50:48;99282.06;;;19.61;93.54
70544;BME280;58097;48.364;-1.224;2023-07-31T10:53:31;99271.31;;;19.58;93.84
70544;BME280;58097;48.364;-1.224;2023-07-31T10:56:04;99257.38;;;19.51;93.31
70544;BME280;58097;48.364;-1.224;2023-07-31T10:58:30;99280.19;;;19.55;93.25
70544;BME280;58097;48.364;-1.224;2023-07-31T11:00:59;99267.28;;;19.54;93.07
70544;BME280;58097;48.364;-1.224;2023-07-31T11:03:26;99269.59;;;19.57;93.52
70544;BME280;58097;48.364;-1.224;2023-07-31T11:08:24;99252.56;;;19.58;94.12
70544;BME280;58097;48.364;-1.224;2023-07-31T11:11:16;99248.81;;;19.64;93.98
70544;BME280;58097;48.364;-1.224;2023-07-31T11:16:12;99252.56;;;19.88;93.78
70544;BME280;58097;48.364;-1.224;2023-07-31T11:18:39;99247.75;;;19.95;93.38
70544;BME280;58097;48.364;-1.224;2023-07-31T11:21:05;99264.56;;;19.95;92.62
70544;BME280;58097;48.364;-1.224;2023-07-31T11:23:31;99260.75;;;19.90;92.63
70544;BME280;58097;48.364;-1.224;2023-07-31T11:26:00;99271.81;;;19.85;92.94
70544;BME280;58097;48.364;-1.224;2023-07-31T11:28:31;99256.47;;;19.87;93.33
70544;BME280;58097;48.364;-1.224;2023-07-31T11:30:57;99248.44;;;19.91;93.08
70544;BME280;58097;48.364;-1.224;2023-07-31T11:33:23;99243.19;;;19.94;93.00
70544;BME280;58097;48.364;-1.224;2023-07-31T11:35:48;99245.94;;;20.01;93.00
70544;BME280;58097;48.364;-1.224;2023-07-31T11:40:57;99231.56;;;20.21;92.73
70544;BME280;58097;48.364;-1.224;2023-07-31T11:43:23;99240.09;;;20.14;91.49
70544;BME280;58097;48.364;-1.224;2023-07-31T11:45:59;99233.13;;;20.05;90.87
70544;BME280;58097;48.364;-1.224;2023-07-31T11:48:27;99229.41;;;19.93;91.59
70544;BME280;58097;48.364;-1.224;2023-07-31T11:50:57;99233.31;;;19.92;91.56
70544;BME280;58097;48.364;-1.224;2023-07-31T11:54:04;99233.28;;;19.80;92.13
70544;BME280;58097;48.364;-1.224;2023-07-31T11:56:29;99216.47;;;19.80;93.29
70544;BME280;58097;48.364;-1.224;2023-07-31T11:58:58;99233.28;;;19.80;94.29
70544;BME280;58097;48.364;-1.224;2023-07-31T12:01:26;99232.06;;;19.76;94.81
70544;BME280;58097;48.364;-1.224;2023-07-31T12:03:53;99223.88;;;19.74;95.18
70544;BME280;58097;48.364;-1.224;2023-07-31T12:06:18;99221.69;;;19.76;95.27
70544;BME280;58097;48.364;-1.224;2023-07-31T12:08:46;99203.03;;;19.70;95.49
70544;BME280;58097;48.364;-1.224;2023-07-31T12:11:11;99214.06;;;19.65;95.89
70544;BME280;58097;48.364;-1.224;2023-07-31T12:13:38;99210.41;;;19.65;96.85
70544;BME280;58097;48.364;-1.224;2023-07-31T12:16:04;99210.22;;;19.66;97.48
70544;BME280;58097;48.364;-1.224;2023-07-31T12:18:34;99205.47;;;19.67;97.34
70544;BME280;58097;48.364;-1.224;2023-07-31T12:21:02;99190.59;;;19.66;98.08
70544;BME280;58097;48.364;-1.224;2023-07-31T12:23:31;99189.00;;;19.70;97.86
70544;BME280;58097;48.364;-1.224;2023-07-31T12:28:29;99173.22;;;19.88;99.30
70544;BME280;58097;48.364;-1.224;2023-07-31T12:30:59;99169.69;;;19.92;99.36
70544;BME280;58097;48.364;-1.224;2023-07-31T12:33:34;99162.66;;;20.01;99.88
70544;BME280;58097;48.364;-1.224;2023-07-31T12:36:01;99167.91;;;20.09;99.77
70544;BME280;58097;48.364;-1.224;2023-07-31T12:38:27;99157.41;;;20.05;99.01
70544;BME280;58097;48.364;-1.224;2023-07-31T12:40:52;99164.72;;;20.06;98.31
70544;BME280;58097;48.364;-1.224;2023-07-31T12:43:18;99160.34;;;19.98;96.61
70544;BME280;58097;48.364;-1.224;2023-07-31T12:45:43;99160.41;;;19.92;96.45
70544;BME280;58097;48.364;-1.224;2023-07-31T12:48:08;99143.84;;;19.90;96.98
70544;BME280;58097;48.364;-1.224;2023-07-31T12:50:34;99130.44;;;19.92;96.60
70544;BME280;58097;48.364;-1.224;2023-07-31T12:53:02;99133.63;;;19.96;96.23
70544;BME280;58097;48.364;-1.224;2023-07-31T12:55:28;99123.47;;;19.95;95.99
70544;BME280;58097;48.364;-1.224;2023-07-31T12:57:54;99127.38;;;19.94;95.09
70544;BME280;58097;48.364;-1.224;2023-07-31T13:00:19;99121.66;;;19.89;94.56
70544;BME280;58097;48.364;-1.224;2023-07-31T13:02:46;99127.63;;;19.92;94.91
70544;BME280;58097;48.364;-1.224;2023-07-31T13:05:11;99141.63;;;19.92;94.18
70544;BME280;58097;48.364;-1.224;2023-07-31T13:07:38;99134.56;;;19.90;93.70
70544;BME280;58097;48.364;-1.224;2023-07-31T13:10:04;99139.81;;;19.86;93.70
70544;BME280;58097;48.364;-1.224;2023-07-31T13:12:29;99116.66;;;19.91;93.45
70544;BME280;58097;48.364;-1.224;2023-07-31T13:14:54;99101.78;;;19.90;93.32